sensor_id;sensor_type;location;lat;lon;timestamp;P1;durP1;ratioP1;P2;durP2;ratioP2
49948;SDS011;35840;45.982;8.890;2024-02-26T00:02:07;8.00;;;4.70;;
49948;SDS011;35840;45.982;8.890;2024-02-26T00:04:34;5.38;;;4.72;;
49948;SDS011;35840;45.982;8.890;2024-02-26T00:07:01;6.70;;;5.00;;
49948;SDS011;35840;45.982;8.890;2024-02-26T00:09:28;7.63;;;5.00;;
49948;SDS011;35840;45.982;8.890;2024-02-26T00:11:55;8.38;;;6.00;;
49948;SDS011;35840;45.982;8.890;2024-02-26T00:14:22;5.15;;;4.50;;
49948;SDS011;35840;45.982;8.890;2024-02-26T00:16:49;8.07;;;5.00;;
49948;SDS011;35840;45.982;8.890;2024-02-26T00:19:16;8.15;;;4.60;;
49948;SDS011;35840;45.982;8.890;2024-02-26T00:21:43;9.00;;;5.30;;
49948;SDS011;35840;45.982;8.890;2024-02-26T00:24:10;6.28;;;4.78;;
49948;SDS011;35840;45.982;8.890;2024-02-26T00:26:37;6.80;;;4.78;;
49948;SDS011;35840;45.982;8.890;2024-02-26T00:29:04;7.78;;;4.57;;
49948;SDS011;35840;45.982;8.890;2024-02-26T00:31:31;4.93;;;4.43;;
49948;SDS011;35840;45.982;8.890;2024-02-26T00:33:58;5.93;;;4.75;;
49948;SDS011;35840;45.982;8.890;2024-02-26T00:36:25;4.95;;;4.40;;
49948;SDS011;35840;45.982;8.890;2024-02-26T00:38:52;9.35;;;5.15;;
49948;SDS011;35840;45.982;8.890;2024-02-26T00:41:19;9.80;;;5.30;;
49948;SDS011;35840;45.982;8.890;2024-02-26T00:43:46;5.97;;;4.35;;
49948;SDS011;35840;45.982;8.890;2024-02-26T00:46:13;6.47;;;5.45;;
49948;SDS011;35840;45.982;8.890;2024-02-26T00:48:40;7.93;;;5.05;;
49948;SDS011;35840;45.982;8.890;2024-02-26T00:51:07;6.32;;;4.78;;
49948;SDS011;35840;45.982;8.890;2024-02-26T00:53:34;8.15;;;6.05;;
49948;SDS011;35840;45.982;8.890;2024-02-26T00:56:02;9.23;;;5.93;;
49948;SDS011;35840;45.982;8.890;2024-02-26T00:58:29;8.57;;;5.35;;
49948;SDS011;35840;45.982;8.890;2024-02-26T01:00:56;7.43;;;6.07;;
49948;SDS011;35840;45.982;8.890;2024-02-26T01:03:23;8.18;;;5.28;;
49948;SDS011;35840;45.982;8.890;2024-02-26T01:05:50;9.10;;;5.80;;
49948;SDS011;35840;45.982;8.890;2024-02-26T01:08:19;5.90;;;4.90;;
49948;SDS011;35840;45.982;8.890;2024-02-26T01:10:46;9.57;;;4.70;;
49948;SDS011;35840;45.982;8.890;2024-02-26T01:13:13;4.80;;;3.80;;
49948;SDS011;35840;45.982;8.890;2024-02-26T01:15:40;4.90;;;4.05;;
49948;SDS011;35840;45.982;8.890;2024-02-26T01:18:07;5.40;;;4.13;;
49948;SDS011;35840;45.982;8.890;2024-02-26T01:20:34;7.93;;;5.15;;
49948;SDS011;35840;45.982;8.890;2024-02-26T01:23:01;6.00;;;4.70;;
49948;SDS011;35840;45.982;8.890;2024-02-26T01:25:27;5.45;;;4.28;;
49948;SDS011;35840;45.982;8.890;2024-02-26T01:27:54;7.15;;;4.75;;
49948;SDS011;35840;45.982;8.890;2024-02-26T01:30:22;6.93;;;5.20;;
49948;SDS011;35840;45.982;8.890;2024-02-26T01:32:49;6.28;;;4.78;;
49948;SDS011;35840;45.982;8.890;2024-02-26T01:35:15;7.97;;;5.13;;
49948;SDS011;35840;45.982;8.890;2024-02-26T01:37:42;5.47;;;4.75;;
49948;SDS011;35840;45.982;8.890;2024-02-26T01:40:09;10.98;;;6.40;;
49948;SDS011;35840;45.982;8.890;2024-02-26T01:42:40;6.70;;;4.80;;
49948;SDS011;35840;45.982;8.890;2024-02-26T01:45:09;8.45;;;6.25;;
49948;SDS011;35840;45.982;8.890;2024-02-26T01:47:42;8.88;;;5.57;;
49948;SDS011;35840;45.982;8.890;2024-02-26T01:50:12;8.15;;;5.03;;
49948;SDS011;35840;45.982;8.890;2024-02-26T01:52:39;6.65;;;5.43;;
49948;SDS011;35840;45.982;8.890;2024-02-26T01:55:07;7.50;;;5.85;;
49948;SDS011;35840;45.982;8.890;2024-02-26T01:57:34;6.75;;;4.97;;
49948;SDS011;35840;45.982;8.890;2024-02-26T02:00:01;8.52;;;6.00;;
49948;SDS011;35840;45.982;8.890;2024-02-26T02:02:33;9.00;;;6.40;;
49948;SDS011;35840;45.982;8.890;2024-02-26T02:05:00;8.20;;;6.13;;
49948;SDS011;35840;45.982;8.890;2024-02-26T02:07:27;7.93;;;5.88;;
49948;SDS011;35840;45.982;8.890;2024-02-26T02:09:55;7.53;;;4.90;;
49948;SDS011;35840;45.982;8.890;2024-02-26T02:12:22;7.40;;;5.70;;
49948;SDS011;35840;45.982;8.890;2024-02-26T02:14:49;7.22;;;5.10;;
49948;SDS011;35840;45.982;8.890;2024-02-26T02:17:16;6.40;;;4.75;;
49948;SDS011;35840;45.982;8.890;2024-02-26T02:19:43;6.00;;;5.10;;
49948;SDS011;35840;45.982;8.890;2024-02-26T02:22:09;10.07;;;5.78;;
49948;SDS011;35840;45.982;8.890;2024-02-26T02:24:36;7.78;;;5.97;;
49948;SDS011;35840;45.982;8.890;2024-02-26T02:27:03;6.50;;;4.22;;
49948;SDS011;35840;45.982;8.890;2024-02-26T02:29:30;5.70;;;4.32;;
49948;SDS011;35840;45.982;8.890;2024-02-26T02:31:57;6.57;;;4.30;;
49948;SDS011;35840;45.982;8.890;2024-02-26T02:34:25;8.35;;;4.30;;
49948;SDS011;35840;45.982;8.890;2024-02-26T02:36:52;5.15;;;3.83;;
49948;SDS011;35840;45.982;8.890;2024-02-26T02:39:20;5.25;;;3.83;;
49948;SDS011;35840;45.982;8.890;2024-02-26T02:41:47;7.10;;;4.95;;
49948;SDS011;35840;45.982;8.890;2024-02-26T02:44:14;6.50;;;5.55;;
49948;SDS011;35840;45.982;8.890;2024-02-26T02:46:41;8.00;;;5.20;;
49948;SDS011;35840;45.982;8.890;2024-02-26T02:49:08;7.50;;;5.03;;
49948;SDS011;35840;45.982;8.890;2024-02-26T02:51:37;5.43;;;4.07;;
49948;SDS011;35840;45.982;8.890;2024-02-26T02:54:04;7.20;;;4.53;;
49948;SDS011;35840;45.982;8.890;2024-02-26T02:56:31;6.32;;;5.28;;
49948;SDS011;35840;45.982;8.890;2024-02-26T02:58:58;5.05;;;4.53;;
49948;SDS011;35840;45.982;8.890;2024-02-26T03:01:24;7.95;;;5.68;;
49948;SDS011;35840;45.982;8.890;2024-02-26T03:03:51;8.52;;;5.45;;
49948;SDS011;35840;45.982;8.890;2024-02-26T03:06:18;8.43;;;5.20;;
49948;SDS011;35840;45.982;8.890;2024-02-26T03:08:47;6.40;;;4.43;;
49948;SDS011;35840;45.982;8.890;2024-02-26T03:11:14;7.85;;;4.22;;
49948;SDS011;35840;45.982;8.890;2024-02-26T03:13:42;5.55;;;4.63;;
49948;SDS011;35840;45.982;8.890;2024-02-26T03:16:09;4.82;;;3.92;;
49948;SDS011;35840;45.982;8.890;2024-02-26T03:18:38;7.75;;;5.28;;
49948;SDS011;35840;45.982;8.890;2024-02-26T03:21:06;6.50;;;4.75;;
49948;SDS011;35840;45.982;8.890;2024-02-26T03:23:33;5.90;;;3.83;;
49948;SDS011;35840;45.982;8.890;2024-02-26T03:26:03;3.75;;;3.17;;
49948;SDS011;35840;45.982;8.890;2024-02-26T03:28:30;5.07;;;3.80;;
49948;SDS011;35840;45.982;8.890;2024-02-26T03:31:00;3.90;;;3.50;;
49948;SDS011;35840;45.982;8.890;2024-02-26T03:33:29;4.28;;;3.72;;
49948;SDS011;35840;45.982;8.890;2024-02-26T03:35:56;5.57;;;3.85;;
49948;SDS011;35840;45.982;8.890;2024-02-26T03:38:23;4.78;;;3.42;;
49948;SDS011;35840;45.982;8.890;2024-02-26T03:40:50;5.10;;;3.70;;
49948;SDS011;35840;45.982;8.890;2024-02-26T03:43:16;5.93;;;4.03;;
49948;SDS011;35840;45.982;8.890;2024-02-26T03:45:44;5.03;;;3.17;;
49948;SDS011;35840;45.982;8.890;2024-02-26T03:48:10;3.80;;;3.40;;
49948;SDS011;35840;45.982;8.890;2024-02-26T03:50:37;3.50;;;3.05;;
49948;SDS011;35840;45.982;8.890;2024-02-26T03:53:05;4.15;;;3.22;;
49948;SDS011;35840;45.982;8.890;2024-02-26T03:55:32;4.13;;;3.72;;
49948;SDS011;35840;45.982;8.890;2024-02-26T03:57:58;5.40;;;3.85;;
49948;SDS011;35840;45.982;8.890;2024-02-26T04:00:26;4.90;;;3.63;;
49948;SDS011;35840;45.982;8.890;2024-02-26T04:02:55;5.35;;;3.28;;
49948;SDS011;35840;45.982;8.890;2024-02-26T04:05:22;5.40;;;3.83;;
49948;SDS011;35840;45.982;8.890;2024-02-26T04:07:49;3.92;;;3.15;;
49948;SDS011;35840;45.982;8.890;2024-02-26T04:10:16;3.67;;;3.28;;
49948;SDS011;35840;45.982;8.890;2024-02-26T04:12:43;3.88;;;3.22;;
49948;SDS011;35840;45.982;8.890;2024-02-26T04:15:10;3.72;;;3.30;;
49948;SDS011;35840;45.982;8.890;2024-02-26T04:17:37;3.42;;;2.45;;
49948;SDS011;35840;45.982;8.890;2024-02-26T04:20:05;3.63;;;2.72;;
49948;SDS011;35840;45.982;8.890;2024-02-26T04:22:33;3.97;;;2.85;;
49948;SDS011;35840;45.982;8.890;2024-02-26T04:25:00;3.42;;;2.92;;
49948;SDS011;35840;45.982;8.890;2024-02-26T04:27:27;3.95;;;2.80;;
49948;SDS011;35840;45.982;8.890;2024-02-26T04:29:54;3.35;;;2.63;;
49948;SDS011;35840;45.982;8.890;2024-02-26T04:32:20;2.90;;;2.50;;
49948;SDS011;35840;45.982;8.890;2024-02-26T04:34:47;3.08;;;2.78;;
49948;SDS011;35840;45.982;8.890;2024-02-26T04:37:14;3.00;;;2.70;;
49948;SDS011;35840;45.982;8.890;2024-02-26T04:39:42;3.67;;;3.15;;
49948;SDS011;35840;45.982;8.890;2024-02-26T04:42:09;5.13;;;3.35;;
49948;SDS011;35840;45.982;8.890;2024-02-26T04:44:36;3.58;;;3.25;;
49948;SDS011;35840;45.982;8.890;2024-02-26T04:47:02;30.88;;;20.83;;
49948;SDS011;35840;45.982;8.890;2024-02-26T04:49:29;9.70;;;5.82;;
49948;SDS011;35840;45.982;8.890;2024-02-26T04:51:56;3.65;;;3.10;;
49948;SDS011;35840;45.982;8.890;2024-02-26T04:54:23;5.30;;;3.70;;
49948;SDS011;35840;45.982;8.890;2024-02-26T04:56:50;3.85;;;3.28;;
49948;SDS011;35840;45.982;8.890;2024-02-26T04:59:18;4.68;;;3.70;;
49948;SDS011;35840;45.982;8.890;2024-02-26T05:01:45;3.58;;;2.60;;
49948;SDS011;35840;45.982;8.890;2024-02-26T05:04:12;2.35;;;2.10;;
49948;SDS011;35840;45.982;8.890;2024-02-26T05:06:39;2.20;;;2.00;;
49948;SDS011;35840;45.982;8.890;2024-02-26T05:09:06;2.60;;;1.98;;
49948;SDS011;35840;45.982;8.890;2024-02-26T05:11:32;2.63;;;2.33;;
49948;SDS011;35840;45.982;8.890;2024-02-26T05:13:59;2.42;;;2.22;;
49948;SDS011;35840;45.982;8.890;2024-02-26T05:16:27;3.47;;;2.70;;
49948;SDS011;35840;45.982;8.890;2024-02-26T05:18:57;2.42;;;2.15;;
49948;SDS011;35840;45.982;8.890;2024-02-26T05:21:24;2.50;;;1.80;;
49948;SDS011;35840;45.982;8.890;2024-02-26T05:23:51;2.05;;;1.85;;
49948;SDS011;35840;45.982;8.890;2024-02-26T05:26:24;1.30;;;1.20;;
49948;SDS011;35840;45.982;8.890;2024-02-26T05:28:51;2.78;;;1.20;;
49948;SDS011;35840;45.982;8.890;2024-02-26T05:31:18;1.33;;;1.23;;
49948;SDS011;35840;45.982;8.890;2024-02-26T05:33:45;1.35;;;1.20;;
49948;SDS011;35840;45.982;8.890;2024-02-26T05:36:17;1.55;;;1.38;;
49948;SDS011;35840;45.982;8.890;2024-02-26T05:38:45;1.60;;;1.50;;
49948;SDS011;35840;45.982;8.890;2024-02-26T05:41:14;1.90;;;1.70;;
49948;SDS011;35840;45.982;8.890;2024-02-26T05:43:42;1.92;;;1.42;;
49948;SDS011;35840;45.982;8.890;2024-02-26T05:46:09;2.50;;;1.35;;
49948;SDS011;35840;45.982;8.890;2024-02-26T05:48:36;1.40;;;1.30;;
49948;SDS011;35840;45.982;8.890;2024-02-26T05:51:03;1.23;;;1.13;;
49948;SDS011;35840;45.982;8.890;2024-02-26T05:53:30;1.58;;;1.20;;
49948;SDS011;35840;45.982;8.890;2024-02-26T05:55:57;1.00;;;1.00;;
49948;SDS011;35840;45.982;8.890;2024-02-26T05:58:24;1.25;;;1.15;;
49948;SDS011;35840;45.982;8.890;2024-02-26T06:00:51;1.40;;;1.20;;
49948;SDS011;35840;45.982;8.890;2024-02-26T06:03:18;1.27;;;1.17;;
49948;SDS011;35840;45.982;8.890;2024-02-26T06:05:45;1.08;;;0.98;;
49948;SDS011;35840;45.982;8.890;2024-02-26T06:08:12;1.10;;;1.10;;
49948;SDS011;35840;45.982;8.890;2024-02-26T06:10:40;1.20;;;1.10;;
49948;SDS011;35840;45.982;8.890;2024-02-26T06:13:07;1.40;;;1.30;;
49948;SDS011;35840;45.982;8.890;2024-02-26T06:15:33;1.80;;;1.45;;
49948;SDS011;35840;45.982;8.890;2024-02-26T06:18:00;1.70;;;1.60;;
49948;SDS011;35840;45.982;8.890;2024-02-26T06:20:27;2.65;;;1.52;;
49948;SDS011;35840;45.982;8.890;2024-02-26T06:22:54;1.52;;;1.30;;
49948;SDS011;35840;45.982;8.890;2024-02-26T06:25:22;1.88;;;1.50;;
49948;SDS011;35840;45.982;8.890;2024-02-26T06:27:49;1.73;;;1.63;;
49948;SDS011;35840;45.982;8.890;2024-02-26T06:30:16;2.05;;;1.85;;
49948;SDS011;35840;45.982;8.890;2024-02-26T06:32:43;2.78;;;2.50;;
49948;SDS011;35840;45.982;8.890;2024-02-26T06:35:10;4.75;;;2.80;;
49948;SDS011;35840;45.982;8.890;2024-02-26T06:37:38;4.25;;;2.90;;
49948;SDS011;35840;45.982;8.890;2024-02-26T06:40:05;2.65;;;2.45;;
49948;SDS011;35840;45.982;8.890;2024-02-26T06:42:32;3.53;;;2.88;;
49948;SDS011;35840;45.982;8.890;2024-02-26T06:44:59;3.53;;;2.90;;
49948;SDS011;35840;45.982;8.890;2024-02-26T06:47:26;2.08;;;1.88;;
49948;SDS011;35840;45.982;8.890;2024-02-26T06:49:53;2.53;;;2.10;;
49948;SDS011;35840;45.982;8.890;2024-02-26T06:52:24;1.45;;;1.30;;
49948;SDS011;35840;45.982;8.890;2024-02-26T06:54:52;3.20;;;1.48;;
49948;SDS011;35840;45.982;8.890;2024-02-26T06:57:19;1.83;;;1.60;;
49948;SDS011;35840;45.982;8.890;2024-02-26T06:59:46;2.22;;;1.35;;
49948;SDS011;35840;45.982;8.890;2024-02-26T07:02:14;1.20;;;1.10;;
49948;SDS011;35840;45.982;8.890;2024-02-26T07:04:42;1.50;;;1.13;;
49948;SDS011;35840;45.982;8.890;2024-02-26T07:07:09;0.60;;;0.60;;
49948;SDS011;35840;45.982;8.890;2024-02-26T07:09:37;1.02;;;1.02;;
49948;SDS011;35840;45.982;8.890;2024-02-26T07:12:04;1.10;;;1.00;;
49948;SDS011;35840;45.982;8.890;2024-02-26T07:14:31;1.02;;;1.02;;
49948;SDS011;35840;45.982;8.890;2024-02-26T07:16:58;2.83;;;1.10;;
49948;SDS011;35840;45.982;8.890;2024-02-26T07:19:25;2.08;;;1.33;;
49948;SDS011;35840;45.982;8.890;2024-02-26T07:21:52;1.08;;;0.90;;
49948;SDS011;35840;45.982;8.890;2024-02-26T07:24:19;1.00;;;0.90;;
49948;SDS011;35840;45.982;8.890;2024-02-26T07:26:47;0.80;;;0.80;;
49948;SDS011;35840;45.982;8.890;2024-02-26T07:29:14;2.03;;;0.93;;
49948;SDS011;35840;45.982;8.890;2024-02-26T07:31:41;1.30;;;1.20;;
49948;SDS011;35840;45.982;8.890;2024-02-26T07:34:07;1.38;;;1.27;;
49948;SDS011;35840;45.982;8.890;2024-02-26T07:36:35;1.30;;;0.95;;
49948;SDS011;35840;45.982;8.890;2024-02-26T07:39:02;0.90;;;0.90;;
49948;SDS011;35840;45.982;8.890;2024-02-26T07:41:29;2.00;;;1.25;;
49948;SDS011;35840;45.982;8.890;2024-02-26T07:43:56;1.30;;;1.10;;
49948;SDS011;35840;45.982;8.890;2024-02-26T07:46:23;1.30;;;1.02;;
49948;SDS011;35840;45.982;8.890;2024-02-26T07:48:50;0.93;;;0.93;;
49948;SDS011;35840;45.982;8.890;2024-02-26T07:51:17;1.10;;;1.00;;
49948;SDS011;35840;45.982;8.890;2024-02-26T07:53:44;3.13;;;1.17;;
49948;SDS011;35840;45.982;8.890;2024-02-26T07:56:10;3.67;;;1.25;;
49948;SDS011;35840;45.982;8.890;2024-02-26T07:58:37;1.30;;;1.20;;
49948;SDS011;35840;45.982;8.890;2024-02-26T08:01:04;1.40;;;1.30;;
49948;SDS011;35840;45.982;8.890;2024-02-26T08:03:31;1.20;;;1.10;;
49948;SDS011;35840;45.982;8.890;2024-02-26T08:05:58;1.35;;;0.80;;
49948;SDS011;35840;45.982;8.890;2024-02-26T08:08:25;1.60;;;1.13;;
49948;SDS011;35840;45.982;8.890;2024-02-26T08:10:51;0.90;;;0.90;;
49948;SDS011;35840;45.982;8.890;2024-02-26T08:13:18;1.88;;;1.30;;
49948;SDS011;35840;45.982;8.890;2024-02-26T08:15:45;1.48;;;0.95;;
49948;SDS011;35840;45.982;8.890;2024-02-26T08:18:12;0.85;;;0.85;;
49948;SDS011;35840;45.982;8.890;2024-02-26T08:20:39;1.30;;;1.05;;
49948;SDS011;35840;45.982;8.890;2024-02-26T08:23:06;0.90;;;0.88;;
49948;SDS011;35840;45.982;8.890;2024-02-26T08:25:33;1.30;;;1.10;;
49948;SDS011;35840;45.982;8.890;2024-02-26T08:28:00;0.93;;;0.68;;
49948;SDS011;35840;45.982;8.890;2024-02-26T08:30:27;0.90;;;0.88;;
49948;SDS011;35840;45.982;8.890;2024-02-26T08:32:54;1.63;;;1.15;;
49948;SDS011;35840;45.982;8.890;2024-02-26T08:35:21;1.20;;;1.08;;
49948;SDS011;35840;45.982;8.890;2024-02-26T08:37:48;1.77;;;1.10;;
49948;SDS011;35840;45.982;8.890;2024-02-26T08:40:15;0.95;;;0.90;;
49948;SDS011;35840;45.982;8.890;2024-02-26T08:42:41;2.30;;;0.82;;
49948;SDS011;35840;45.982;8.890;2024-02-26T08:45:09;1.52;;;0.85;;
49948;SDS011;35840;45.982;8.890;2024-02-26T08:47:36;1.02;;;0.93;;
49948;SDS011;35840;45.982;8.890;2024-02-26T08:50:04;1.95;;;1.10;;
49948;SDS011;35840;45.982;8.890;2024-02-26T08:52:31;3.05;;;1.27;;
49948;SDS011;35840;45.982;8.890;2024-02-26T08:54:58;2.95;;;1.10;;
49948;SDS011;35840;45.982;8.890;2024-02-26T08:57:25;1.17;;;0.85;;
49948;SDS011;35840;45.982;8.890;2024-02-26T08:59:55;1.00;;;0.73;;
49948;SDS011;35840;45.982;8.890;2024-02-26T09:02:22;1.70;;;0.80;;
49948;SDS011;35840;45.982;8.890;2024-02-26T09:04:48;0.77;;;0.63;;
49948;SDS011;35840;45.982;8.890;2024-02-26T09:07:17;1.40;;;1.30;;
49948;SDS011;35840;45.982;8.890;2024-02-26T09:09:44;1.27;;;1.17;;
49948;SDS011;35840;45.982;8.890;2024-02-26T09:12:11;1.00;;;0.80;;
49948;SDS011;35840;45.982;8.890;2024-02-26T09:14:38;0.70;;;0.70;;
49948;SDS011;35840;45.982;8.890;2024-02-26T09:17:05;0.50;;;0.50;;
49948;SDS011;35840;45.982;8.890;2024-02-26T09:19:34;0.73;;;0.70;;
49948;SDS011;35840;45.982;8.890;2024-02-26T09:22:01;1.30;;;0.80;;
49948;SDS011;35840;45.982;8.890;2024-02-26T09:24:28;0.50;;;0.50;;
49948;SDS011;35840;45.982;8.890;2024-02-26T09:26:55;2.55;;;0.93;;
49948;SDS011;35840;45.982;8.890;2024-02-26T09:29:23;0.40;;;0.40;;
49948;SDS011;35840;45.982;8.890;2024-02-26T09:31:49;0.80;;;0.60;;
49948;SDS011;35840;45.982;8.890;2024-02-26T09:34:16;1.40;;;0.77;;
49948;SDS011;35840;45.982;8.890;2024-02-26T09:36:43;2.08;;;0.32;;
49948;SDS011;35840;45.982;8.890;2024-02-26T09:39:10;0.60;;;0.60;;
49948;SDS011;35840;45.982;8.890;2024-02-26T09:41:38;0.85;;;0.38;;
49948;SDS011;35840;45.982;8.890;2024-02-26T09:44:05;0.30;;;0.30;;
49948;SDS011;35840;45.982;8.890;2024-02-26T09:46:32;2.53;;;0.32;;
49948;SDS011;35840;45.982;8.890;2024-02-26T09:49:00;0.63;;;0.20;;
49948;SDS011;35840;45.982;8.890;2024-02-26T09:51:27;1.05;;;0.40;;
49948;SDS011;35840;45.982;8.890;2024-02-26T09:53:56;0.30;;;0.30;;
49948;SDS011;35840;45.982;8.890;2024-02-26T09:56:28;0.55;;;0.32;;
49948;SDS011;35840;45.982;8.890;2024-02-26T09:58:56;1.10;;;0.60;;
49948;SDS011;35840;45.982;8.890;2024-02-26T10:01:24;0.95;;;0.40;;
49948;SDS011;35840;45.982;8.890;2024-02-26T10:03:54;0.70;;;0.57;;
49948;SDS011;35840;45.982;8.890;2024-02-26T10:06:24;0.50;;;0.40;;
49948;SDS011;35840;45.982;8.890;2024-02-26T10:08:53;0.40;;;0.40;;
49948;SDS011;35840;45.982;8.890;2024-02-26T10:11:22;1.45;;;1.20;;
49948;SDS011;35840;45.982;8.890;2024-02-26T10:13:50;0.80;;;0.80;;
49948;SDS011;35840;45.982;8.890;2024-02-26T10:16:17;2.38;;;1.02;;
49948;SDS011;35840;45.982;8.890;2024-02-26T10:18:45;1.38;;;0.80;;
49948;SDS011;35840;45.982;8.890;2024-02-26T10:21:25;1.02;;;0.80;;
49948;SDS011;35840;45.982;8.890;2024-02-26T10:23:53;1.63;;;1.08;;
49948;SDS011;35840;45.982;8.890;2024-02-26T10:26:21;0.95;;;0.73;;
49948;SDS011;35840;45.982;8.890;2024-02-26T10:28:48;1.63;;;0.85;;
49948;SDS011;35840;45.982;8.890;2024-02-26T10:31:20;0.65;;;0.40;;
49948;SDS011;35840;45.982;8.890;2024-02-26T10:33:48;1.25;;;0.90;;
49948;SDS011;35840;45.982;8.890;2024-02-26T10:36:15;0.93;;;0.65;;
49948;SDS011;35840;45.982;8.890;2024-02-26T10:38:43;1.23;;;0.43;;
49948;SDS011;35840;45.982;8.890;2024-02-26T10:41:13;0.38;;;0.38;;
49948;SDS011;35840;45.982;8.890;2024-02-26T10:43:42;0.93;;;0.40;;
49948;SDS011;35840;45.982;8.890;2024-02-26T10:46:10;0.75;;;0.75;;
49948;SDS011;35840;45.982;8.890;2024-02-26T10:48:38;0.63;;;0.35;;
49948;SDS011;35840;45.982;8.890;2024-02-26T10:51:05;0.30;;;0.30;;
49948;SDS011;35840;45.982;8.890;2024-02-26T10:53:36;0.55;;;0.43;;
49948;SDS011;35840;45.982;8.890;2024-02-26T10:56:03;0.50;;;0.50;;
49948;SDS011;35840;45.982;8.890;2024-02-26T10:58:34;0.40;;;0.40;;
49948;SDS011;35840;45.982;8.890;2024-02-26T11:01:02;0.63;;;0.63;;
49948;SDS011;35840;45.982;8.890;2024-02-26T11:03:30;0.80;;;0.80;;
49948;SDS011;35840;45.982;8.890;2024-02-26T11:06:01;1.15;;;0.80;;
49948;SDS011;35840;45.982;8.890;2024-02-26T11:08:30;1.33;;;0.95;;
49948;SDS011;35840;45.982;8.890;2024-02-26T11:10:58;1.13;;;0.90;;
49948;SDS011;35840;45.982;8.890;2024-02-26T11:13:27;0.77;;;0.65;;
49948;SDS011;35840;45.982;8.890;2024-02-26T11:15:57;0.82;;;0.70;;
49948;SDS011;35840;45.982;8.890;2024-02-26T11:18:26;0.70;;;0.70;;
49948;SDS011;35840;45.982;8.890;2024-02-26T11:20:54;1.77;;;0.88;;
49948;SDS011;35840;45.982;8.890;2024-02-26T11:23:23;1.10;;;0.55;;
49948;SDS011;35840;45.982;8.890;2024-02-26T11:25:50;0.73;;;0.60;;
49948;SDS011;35840;45.982;8.890;2024-02-26T11:28:20;0.70;;;0.52;;
49948;SDS011;35840;45.982;8.890;2024-02-26T11:30:49;0.88;;;0.50;;
49948;SDS011;35840;45.982;8.890;2024-02-26T11:33:18;1.38;;;0.52;;
49948;SDS011;35840;45.982;8.890;2024-02-26T11:35:47;1.15;;;1.00;;
49948;SDS011;35840;45.982;8.890;2024-02-26T11:38:20;0.85;;;0.70;;
49948;SDS011;35840;45.982;8.890;2024-02-26T11:40:48;0.65;;;0.65;;
49948;SDS011;35840;45.982;8.890;2024-02-26T11:43:16;0.95;;;0.65;;
49948;SDS011;35840;45.982;8.890;2024-02-26T11:48:14;1.30;;;1.20;;
49948;SDS011;35840;45.982;8.890;2024-02-26T11:50:47;1.45;;;1.25;;
49948;SDS011;35840;45.982;8.890;2024-02-26T11:58:57;1.15;;;0.70;;
49948;SDS011;35840;45.982;8.890;2024-02-26T12:01:35;0.90;;;0.88;;
49948;SDS011;35840;45.982;8.890;2024-02-26T12:07:02;1.25;;;0.70;;
49948;SDS011;35840;45.982;8.890;2024-02-26T12:09:40;1.23;;;0.40;;
49948;SDS011;35840;45.982;8.890;2024-02-26T12:12:09;1.52;;;0.73;;
49948;SDS011;35840;45.982;8.890;2024-02-26T12:14:40;0.38;;;0.38;;
49948;SDS011;35840;45.982;8.890;2024-02-26T12:17:22;0.30;;;0.30;;
49948;SDS011;35840;45.982;8.890;2024-02-26T12:19:51;0.30;;;0.30;;
49948;SDS011;35840;45.982;8.890;2024-02-26T12:22:20;0.50;;;0.30;;
49948;SDS011;35840;45.982;8.890;2024-02-26T12:24:47;1.23;;;1.13;;
49948;SDS011;35840;45.982;8.890;2024-02-26T12:27:14;7.68;;;1.20;;
49948;SDS011;35840;45.982;8.890;2024-02-26T12:29:41;1.83;;;1.67;;
49948;SDS011;35840;45.982;8.890;2024-02-26T12:32:08;2.10;;;1.35;;
49948;SDS011;35840;45.982;8.890;2024-02-26T12:34:37;2.00;;;1.40;;
49948;SDS011;35840;45.982;8.890;2024-02-26T12:37:04;3.65;;;1.70;;
49948;SDS011;35840;45.982;8.890;2024-02-26T12:39:31;1.52;;;1.08;;
49948;SDS011;35840;45.982;8.890;2024-02-26T12:41:58;3.00;;;1.73;;
49948;SDS011;35840;45.982;8.890;2024-02-26T12:44:26;1.60;;;0.93;;
49948;SDS011;35840;45.982;8.890;2024-02-26T12:47:02;2.25;;;1.52;;
49948;SDS011;35840;45.982;8.890;2024-02-26T12:49:30;1.10;;;1.00;;
49948;SDS011;35840;45.982;8.890;2024-02-26T12:51:57;1.88;;;1.33;;
49948;SDS011;35840;45.982;8.890;2024-02-26T12:54:28;0.85;;;0.80;;
49948;SDS011;35840;45.982;8.890;2024-02-26T12:56:59;1.55;;;0.80;;
49948;SDS011;35840;45.982;8.890;2024-02-26T12:59:28;0.60;;;0.60;;
49948;SDS011;35840;45.982;8.890;2024-02-26T13:01:56;0.75;;;0.70;;
49948;SDS011;35840;45.982;8.890;2024-02-26T13:04:24;1.08;;;0.98;;
49948;SDS011;35840;45.982;8.890;2024-02-26T13:06:54;0.65;;;0.50;;
49948;SDS011;35840;45.982;8.890;2024-02-26T13:09:21;2.08;;;0.70;;
49948;SDS011;35840;45.982;8.890;2024-02-26T13:11:58;0.90;;;0.82;;
49948;SDS011;35840;45.982;8.890;2024-02-26T13:14:26;1.15;;;0.60;;
49948;SDS011;35840;45.982;8.890;2024-02-26T13:16:57;1.10;;;0.65;;
49948;SDS011;35840;45.982;8.890;2024-02-26T13:19:24;1.30;;;0.65;;
49948;SDS011;35840;45.982;8.890;2024-02-26T13:21:51;11.93;;;1.23;;
49948;SDS011;35840;45.982;8.890;2024-02-26T13:24:19;2.70;;;0.82;;
49948;SDS011;35840;45.982;8.890;2024-02-26T13:26:47;0.50;;;0.38;;
49948;SDS011;35840;45.982;8.890;2024-02-26T13:29:17;1.02;;;0.70;;
49948;SDS011;35840;45.982;8.890;2024-02-26T13:31:45;2.33;;;1.35;;
49948;SDS011;35840;45.982;8.890;2024-02-26T13:34:28;1.65;;;1.08;;
49948;SDS011;35840;45.982;8.890;2024-02-26T13:36:57;1.67;;;1.05;;
49948;SDS011;35840;45.982;8.890;2024-02-26T13:39:24;2.15;;;0.90;;
49948;SDS011;35840;45.982;8.890;2024-02-26T13:41:53;0.80;;;0.80;;
49948;SDS011;35840;45.982;8.890;2024-02-26T13:44:21;1.55;;;1.20;;
49948;SDS011;35840;45.982;8.890;2024-02-26T13:46:48;1.10;;;0.75;;
49948;SDS011;35840;45.982;8.890;2024-02-26T13:49:15;2.10;;;0.90;;
49948;SDS011;35840;45.982;8.890;2024-02-26T13:51:43;2.13;;;1.00;;
49948;SDS011;35840;45.982;8.890;2024-02-26T13:54:10;0.98;;;0.98;;
49948;SDS011;35840;45.982;8.890;2024-02-26T13:56:37;1.38;;;1.00;;
49948;SDS011;35840;45.982;8.890;2024-02-26T13:59:04;1.10;;;1.00;;
49948;SDS011;35840;45.982;8.890;2024-02-26T14:01:31;1.23;;;0.60;;
49948;SDS011;35840;45.982;8.890;2024-02-26T14:03:59;0.70;;;0.70;;
49948;SDS011;35840;45.982;8.890;2024-02-26T14:06:29;0.70;;;0.70;;
49948;SDS011;35840;45.982;8.890;2024-02-26T14:08:57;0.95;;;0.80;;
49948;SDS011;35840;45.982;8.890;2024-02-26T14:11:24;0.80;;;0.70;;
49948;SDS011;35840;45.982;8.890;2024-02-26T14:13:52;0.80;;;0.70;;
49948;SDS011;35840;45.982;8.890;2024-02-26T14:16:19;0.70;;;0.70;;
49948;SDS011;35840;45.982;8.890;2024-02-26T14:18:46;1.60;;;1.00;;
49948;SDS011;35840;45.982;8.890;2024-02-26T14:21:14;0.70;;;0.70;;
49948;SDS011;35840;45.982;8.890;2024-02-26T14:23:41;1.23;;;0.80;;
49948;SDS011;35840;45.982;8.890;2024-02-26T14:26:10;0.60;;;0.60;;
49948;SDS011;35840;45.982;8.890;2024-02-26T14:28:38;0.50;;;0.50;;
49948;SDS011;35840;45.982;8.890;2024-02-26T14:31:05;0.57;;;0.57;;
49948;SDS011;35840;45.982;8.890;2024-02-26T14:33:32;0.65;;;0.65;;
49948;SDS011;35840;45.982;8.890;2024-02-26T14:35:59;1.35;;;0.50;;
49948;SDS011;35840;45.982;8.890;2024-02-26T14:38:26;0.68;;;0.65;;
49948;SDS011;35840;45.982;8.890;2024-02-26T14:40:53;0.70;;;0.70;;
49948;SDS011;35840;45.982;8.890;2024-02-26T14:43:20;0.60;;;0.60;;
49948;SDS011;35840;45.982;8.890;2024-02-26T14:45:47;1.17;;;0.68;;
49948;SDS011;35840;45.982;8.890;2024-02-26T14:48:14;3.45;;;1.30;;
49948;SDS011;35840;45.982;8.890;2024-02-26T14:50:47;1.90;;;1.17;;
49948;SDS011;35840;45.982;8.890;2024-02-26T14:53:13;1.02;;;0.93;;
49948;SDS011;35840;45.982;8.890;2024-02-26T14:55:40;0.93;;;0.93;;
49948;SDS011;35840;45.982;8.890;2024-02-26T14:58:07;0.60;;;0.60;;
49948;SDS011;35840;45.982;8.890;2024-02-26T15:00:40;0.80;;;0.80;;
49948;SDS011;35840;45.982;8.890;2024-02-26T15:03:07;0.70;;;0.70;;